createdAt,value
2023-03-02T00:00:46.807Z,16.90
2023-03-02T00:03:18.111Z,17.17
2023-03-02T00:05:47.130Z,19.63
2023-03-02T00:08:16.866Z,22.10
2023-03-02T00:10:43.393Z,21.03
2023-03-02T00:13:11.202Z,19.50
2023-03-02T00:15:37.912Z,21.47
2023-03-02T00:18:04.528Z,21.30
2023-03-02T00:20:31.625Z,20.03
2023-03-02T00:22:58.089Z,20.70
2023-03-02T00:25:24.588Z,16.60
2023-03-02T00:27:51.134Z,21.67
2023-03-02T00:30:17.843Z,17.57
2023-03-02T00:32:45.678Z,17.43
2023-03-02T00:35:12.626Z,18.57
2023-03-02T00:37:39.194Z,17.67
2023-03-02T00:40:09.440Z,17.67
2023-03-02T00:42:37.163Z,17.20
2023-03-02T00:45:05.307Z,17.87
2023-03-02T00:47:35.071Z,21.43
2023-03-02T00:50:02.201Z,17.53
2023-03-02T00:52:32.638Z,18.93
2023-03-02T00:54:59.362Z,18.10
2023-03-02T00:57:25.923Z,20.70
2023-03-02T00:59:52.477Z,18.13
2023-03-02T01:02:22.002Z,17.37
2023-03-02T01:04:48.605Z,18.87
2023-03-02T01:07:18.029Z,20.20
2023-03-02T01:09:45.759Z,18.10
2023-03-02T01:12:12.845Z,17.30
2023-03-02T01:14:44.616Z,17.30
2023-03-02T01:17:11.930Z,17.17
2023-03-02T01:19:38.940Z,19.27
2023-03-02T01:22:05.403Z,20.30
2023-03-02T01:24:32.619Z,18.50
2023-03-02T01:26:59.177Z,17.30
2023-03-02T01:29:26.363Z,19.73
2023-03-02T01:31:52.913Z,18.60
2023-03-02T01:34:19.464Z,19.30
2023-03-02T01:36:46.177Z,19.47
2023-03-02T01:39:16.554Z,16.20
2023-03-02T01:41:45.480Z,18.47
2023-03-02T01:44:47.547Z,17.90
2023-03-02T01:47:22.190Z,18.33
2023-03-02T01:50:18.736Z,22.57
2023-03-02T01:52:45.436Z,18.50
2023-03-02T01:55:14.965Z,18.10
2023-03-02T01:57:45.593Z,21.23
2023-03-02T02:00:19.342Z,20.30
2023-03-02T02:02:46.584Z,18.47
2023-03-02T02:05:21.238Z,20.57
2023-03-02T02:07:47.772Z,17.80
2023-03-02T02:10:14.615Z,18.07
2023-03-02T02:12:41.056Z,17.70
2023-03-02T02:15:08.268Z,19.37
2023-03-02T02:17:35.264Z,15.63
2023-03-02T02:20:01.709Z,17.70
2023-03-02T02:23:04.640Z,17.40
2023-03-02T02:25:46.063Z,23.53
2023-03-02T02:28:19.620Z,18.40
2023-03-02T02:30:50.531Z,19.60
2023-03-02T02:33:21.736Z,17.70
2023-03-02T02:35:49.206Z,20.50
2023-03-02T02:38:19.342Z,18.87
2023-03-02T02:40:53.820Z,17.47
2023-03-02T02:43:22.103Z,17.43
2023-03-02T02:45:53.431Z,18.07
2023-03-02T02:48:24.151Z,17.13
2023-03-02T02:51:00.177Z,18.93
2023-03-02T02:54:00.453Z,16.70
2023-03-02T02:56:31.016Z,18.67
2023-03-02T02:59:18.292Z,18.77
2023-03-02T03:01:46.328Z,19.03
2023-03-02T03:04:18.131Z,17.60
2023-03-02T03:06:57.409Z,21.87
2023-03-02T03:09:24.525Z,17.03
2023-03-02T03:12:10.793Z,19.33
2023-03-02T03:14:40.923Z,20.30
2023-03-02T03:17:14.175Z,16.30
2023-03-02T03:19:43.793Z,16.63
2023-03-02T03:22:14.097Z,17.80
2023-03-02T03:24:42.606Z,20.57
2023-03-02T03:27:10.971Z,17.60
2023-03-02T03:29:40.780Z,19.93
2023-03-02T03:32:07.481Z,16.30
2023-03-02T03:34:40.499Z,17.07
2023-03-02T03:37:13.068Z,17.50
2023-03-02T03:39:39.742Z,20.83
2023-03-02T03:42:06.444Z,16.00
2023-03-02T03:44:33.273Z,19.27
2023-03-02T03:46:59.845Z,17.17
2023-03-02T03:49:27.324Z,21.33
2023-03-02T03:51:53.837Z,21.13
2023-03-02T03:54:20.328Z,21.80
2023-03-02T03:56:48.884Z,18.80
2023-03-02T03:59:21.513Z,17.47
2023-03-02T04:01:54.642Z,16.93
2023-03-02T04:04:26.933Z,17.20
2023-03-02T04:06:53.956Z,16.67
2023-03-02T04:09:21.683Z,16.30
2023-03-02T04:11:50.133Z,17.50
2023-03-02T04:14:17.865Z,16.73
2023-03-02T04:16:44.551Z,19.13
2023-03-02T04:19:12.048Z,16.87
2023-03-02T04:21:41.135Z,16.57
2023-03-02T04:24:09.447Z,15.43
2023-03-02T04:26:38.208Z,19.90
2023-03-02T04:29:05.542Z,21.83
2023-03-02T04:31:32.243Z,17.30
2023-03-02T04:33:59.540Z,16.87
2023-03-02T04:36:26.774Z,14.90
2023-03-02T04:38:53.387Z,15.17
2023-03-02T04:41:19.877Z,17.67
2023-03-02T04:43:46.416Z,19.00
2023-03-02T04:46:20.191Z,17.00
2023-03-02T04:48:49.453Z,17.60
2023-03-02T04:51:24.164Z,16.13
2023-03-02T04:53:55.840Z,19.03
2023-03-02T04:56:22.533Z,15.03
2023-03-02T04:58:49.607Z,15.07
2023-03-02T05:01:17.453Z,17.77
2023-03-02T05:03:44.208Z,16.80
2023-03-02T05:06:11.085Z,17.57
2023-03-02T05:08:37.689Z,16.23
2023-03-02T05:11:06.276Z,16.70
2023-03-02T05:13:32.732Z,16.47
2023-03-02T05:15:59.181Z,16.60
2023-03-02T05:18:25.753Z,16.40
2023-03-02T05:20:53.609Z,17.40
2023-03-02T05:23:25.756Z,16.37
2023-03-02T05:25:55.061Z,16.77
2023-03-02T05:28:24.139Z,18.83
2023-03-02T05:30:51.235Z,17.80
2023-03-02T05:33:18.575Z,19.43
2023-03-02T05:35:45.101Z,17.80
2023-03-02T05:38:11.893Z,17.83
2023-03-02T05:40:39.486Z,16.73
2023-03-02T05:43:06.696Z,15.93
2023-03-02T05:45:36.006Z,20.83
2023-03-02T05:48:02.973Z,18.57
2023-03-02T05:50:29.477Z,16.87
2023-03-02T05:52:55.967Z,15.57
2023-03-02T05:55:22.372Z,22.53
2023-03-02T05:57:49.306Z,19.63
2023-03-02T06:00:17.584Z,19.87
2023-03-02T06:02:44.228Z,16.87
2023-03-02T06:05:14.060Z,18.60
2023-03-02T06:07:41.050Z,17.33
2023-03-02T06:10:10.028Z,21.47
2023-03-02T06:12:36.926Z,29.67
2023-03-02T06:15:05.624Z,15.93
2023-03-02T06:17:32.334Z,16.93
2023-03-02T06:19:58.796Z,16.10
2023-03-02T06:22:25.374Z,17.60
2023-03-02T06:24:51.792Z,28.23
2023-03-02T06:27:18.213Z,16.93
2023-03-02T06:29:44.648Z,15.47
2023-03-02T06:32:11.253Z,16.97
2023-03-02T06:34:37.788Z,18.17
2023-03-02T06:37:04.318Z,16.40
2023-03-02T06:39:30.741Z,19.10
2023-03-02T06:41:57.267Z,16.63
2023-03-02T06:44:23.731Z,15.80
2023-03-02T06:46:50.241Z,17.17
2023-03-02T06:49:16.680Z,17.60
2023-03-02T06:51:43.123Z,19.63
2023-03-02T06:54:09.600Z,20.53
2023-03-02T06:56:36.004Z,15.70
2023-03-02T06:59:02.450Z,18.10
2023-03-02T07:01:35.618Z,18.53
2023-03-02T07:04:03.168Z,16.07
2023-03-02T07:06:29.634Z,16.87
2023-03-02T07:08:56.056Z,17.90
2023-03-02T07:11:22.492Z,15.30
2023-03-02T07:13:49.693Z,19.87
2023-03-02T07:16:16.443Z,19.90
2023-03-02T07:18:43.004Z,19.70
2023-03-02T07:21:09.589Z,16.63
2023-03-02T07:23:36.236Z,17.80
2023-03-02T07:26:02.678Z,15.80
2023-03-02T07:28:29.140Z,15.53
2023-03-02T07:30:55.629Z,15.97
2023-03-02T07:33:22.456Z,17.90
2023-03-02T07:35:49.059Z,16.90
2023-03-02T07:38:15.604Z,17.33
2023-03-02T07:40:42.869Z,18.30
2023-03-02T07:43:10.058Z,18.23
2023-03-02T07:45:38.045Z,17.47
2023-03-02T07:48:05.257Z,20.10
2023-03-02T07:50:32.578Z,14.47
2023-03-02T07:53:00.100Z,20.10
2023-03-02T07:55:26.772Z,22.63
2023-03-02T07:57:53.456Z,17.43
2023-03-02T08:00:20.804Z,18.10
2023-03-02T08:02:47.409Z,16.60
2023-03-02T08:05:14.150Z,14.17
2023-03-02T08:07:40.976Z,19.60
2023-03-02T08:10:07.764Z,19.57
2023-03-02T08:12:34.476Z,21.00
2023-03-02T08:15:02.559Z,17.53
2023-03-02T08:17:30.036Z,19.20
2023-03-02T08:19:56.536Z,17.43
2023-03-02T08:22:23.019Z,16.03
2023-03-02T08:24:49.516Z,16.63
2023-03-02T08:27:16.479Z,19.70
2023-03-02T08:29:42.967Z,18.93
2023-03-02T08:32:09.863Z,16.73
2023-03-02T08:34:36.502Z,17.10
2023-03-02T08:37:02.986Z,20.30
2023-03-02T08:39:31.276Z,16.30
2023-03-02T08:41:59.199Z,21.17
2023-03-02T08:44:25.632Z,19.93
2023-03-02T08:46:52.308Z,17.97
2023-03-02T08:49:19.626Z,18.87
2023-03-02T08:51:46.451Z,17.60
2023-03-02T08:54:13.294Z,18.93
2023-03-02T08:56:39.930Z,15.27
2023-03-02T08:59:10.938Z,20.00
2023-03-02T09:01:38.590Z,16.93
2023-03-02T09:04:07.288Z,16.57
2023-03-02T09:06:36.975Z,19.53
2023-03-02T09:09:03.897Z,17.13
2023-03-02T09:11:30.644Z,19.33
2023-03-02T09:13:57.285Z,17.57
2023-03-02T09:16:25.782Z,16.73
2023-03-02T09:18:53.298Z,18.53
2023-03-02T09:21:19.781Z,18.13
2023-03-02T09:23:46.312Z,16.80
2023-03-02T09:26:13.191Z,20.83
2023-03-02T09:28:39.793Z,16.67
2023-03-02T09:31:08.359Z,18.10
2023-03-02T09:33:35.215Z,18.23
2023-03-02T09:36:09.312Z,18.93
2023-03-02T09:38:35.968Z,18.10
2023-03-02T09:41:35.510Z,19.27
2023-03-02T09:44:24.439Z,19.43
2023-03-02T09:47:04.046Z,19.10
2023-03-02T09:49:59.145Z,19.00
2023-03-02T09:52:51.631Z,16.73
2023-03-02T09:55:28.876Z,18.10
2023-03-02T09:57:56.071Z,18.80
2023-03-02T10:00:36.336Z,17.87
2023-03-02T10:03:16.534Z,20.67
2023-03-02T10:05:47.729Z,17.80
2023-03-02T10:08:17.222Z,22.73
2023-03-02T10:10:55.245Z,17.97
2023-03-02T10:13:27.308Z,15.93
2023-03-02T10:16:13.593Z,17.97
2023-03-02T10:18:58.744Z,18.27
2023-03-02T10:21:29.825Z,18.87
2023-03-02T10:23:59.063Z,18.40
2023-03-02T10:26:28.365Z,16.30
2023-03-02T10:29:20.846Z,18.23
2023-03-02T10:31:49.859Z,15.80
2023-03-02T10:34:16.908Z,17.77
2023-03-02T10:36:45.031Z,16.97
2023-03-02T10:39:16.917Z,16.70
2023-03-02T10:41:50.504Z,17.27
2023-03-02T10:44:28.742Z,15.83
2023-03-02T10:46:55.572Z,18.40
2023-03-02T10:49:35.742Z,19.63
2023-03-02T10:52:13.582Z,17.10
2023-03-02T10:54:40.825Z,19.90
2023-03-02T10:57:28.319Z,18.67
2023-03-02T11:00:01.095Z,17.70
2023-03-02T11:02:29.310Z,18.97
2023-03-02T11:04:58.330Z,19.33
2023-03-02T11:07:28.395Z,19.13
2023-03-02T11:10:17.371Z,16.30
2023-03-02T11:12:47.723Z,19.73
2023-03-02T11:15:32.595Z,16.70
2023-03-02T11:18:11.787Z,17.63
2023-03-02T11:20:42.598Z,17.63
2023-03-02T11:23:26.392Z,17.83
2023-03-02T11:25:57.027Z,17.03
2023-03-02T11:28:46.345Z,18.10
2023-03-02T11:31:22.639Z,17.33
2023-03-02T11:34:11.551Z,17.87
2023-03-02T11:36:52.592Z,20.50
2023-03-02T11:39:25.832Z,17.97
2023-03-02T11:41:53.773Z,17.20
2023-03-02T11:44:22.029Z,16.20
2023-03-02T11:46:53.524Z,18.13
2023-03-02T11:49:36.855Z,15.73
2023-03-02T11:52:03.645Z,22.50
2023-03-02T11:54:46.001Z,16.40
2023-03-02T11:57:35.819Z,15.90
2023-03-02T12:00:11.028Z,15.07
2023-03-02T12:02:37.538Z,17.03
2023-03-02T12:05:08.623Z,16.33
2023-03-02T12:07:35.324Z,17.03
2023-03-02T12:10:09.348Z,17.30
2023-03-02T12:12:48.144Z,16.80
2023-03-02T12:15:36.008Z,18.07
2023-03-02T12:18:02.845Z,15.50
2023-03-02T12:20:30.992Z,14.33
2023-03-02T12:23:09.346Z,18.67
2023-03-02T12:25:43.132Z,15.73
2023-03-02T12:28:30.289Z,14.30
2023-03-02T12:31:10.008Z,17.50
2023-03-02T12:33:46.955Z,15.20
2023-03-02T12:36:25.331Z,15.40
2023-03-02T12:39:09.492Z,15.63
2023-03-02T12:41:50.998Z,16.43
2023-03-02T12:44:47.723Z,13.60
2023-03-02T12:47:27.888Z,14.60
2023-03-02T12:50:04.709Z,16.03
2023-03-02T12:52:36.446Z,15.43
2023-03-02T12:55:07.759Z,16.10
2023-03-02T12:57:38.242Z,26.30
2023-03-02T13:00:06.040Z,15.13
2023-03-02T13:02:35.426Z,15.53
2023-03-02T13:05:06.470Z,17.97
2023-03-02T13:07:41.220Z,11.83
2023-03-02T13:10:30.843Z,13.57
2023-03-02T13:12:59.894Z,16.37
2023-03-02T13:15:28.023Z,16.73
2023-03-02T13:18:00.799Z,17.10
2023-03-02T13:20:29.958Z,15.70
2023-03-02T13:22:56.993Z,14.93
2023-03-02T13:25:23.523Z,23.93
2023-03-02T13:28:24.218Z,14.87
2023-03-02T13:31:00.584Z,13.33
2023-03-02T13:33:28.823Z,16.97
2023-03-02T13:35:56.137Z,20.30
2023-03-02T13:38:26.503Z,14.77
2023-03-02T13:40:54.900Z,13.20
2023-03-02T13:43:30.600Z,13.50
2023-03-02T13:45:59.777Z,13.20
2023-03-02T13:48:32.597Z,14.93
2023-03-02T13:51:19.425Z,14.60
2023-03-02T13:53:53.842Z,14.90
2023-03-02T13:56:25.159Z,15.90
2023-03-02T13:58:51.683Z,19.97
2023-03-02T14:01:18.253Z,14.20
2023-03-02T14:03:44.847Z,17.77
2023-03-02T14:06:11.373Z,12.50
2023-03-02T14:08:37.877Z,16.60
2023-03-02T14:11:05.688Z,12.87
2023-03-02T14:13:43.258Z,14.50
2023-03-02T14:16:13.423Z,14.57
2023-03-02T14:18:44.709Z,13.10
2023-03-02T14:21:20.193Z,14.87
2023-03-02T14:23:47.028Z,15.47
2023-03-02T14:26:16.433Z,12.63
2023-03-02T14:28:43.028Z,18.10
2023-03-02T14:31:10.442Z,14.03
2023-03-02T14:33:37.784Z,17.03
2023-03-02T14:36:06.081Z,12.13
2023-03-02T14:38:32.898Z,17.17
2023-03-02T14:40:59.412Z,12.37
2023-03-02T14:43:26.089Z,14.03
2023-03-02T14:45:53.217Z,12.20
2023-03-02T14:48:19.812Z,14.00
2023-03-02T14:50:49.131Z,11.37
2023-03-02T14:53:29.693Z,13.27
2023-03-02T14:55:56.257Z,13.27
2023-03-02T14:58:32.028Z,12.33
2023-03-02T15:00:58.787Z,11.87
2023-03-02T15:03:26.698Z,11.20
2023-03-02T15:06:01.227Z,11.70
2023-03-02T15:08:29.121Z,19.40
2023-03-02T15:10:55.603Z,11.57
2023-03-02T15:13:22.064Z,15.93
2023-03-02T15:15:49.910Z,14.43
2023-03-02T15:18:19.581Z,13.27
2023-03-02T15:20:46.296Z,14.37
2023-03-02T15:23:12.922Z,18.03
2023-03-02T15:25:40.755Z,14.90
2023-03-02T15:28:07.223Z,14.57
2023-03-02T15:30:33.694Z,11.80
2023-03-02T15:33:00.200Z,15.00
2023-03-02T15:35:28.037Z,11.60
2023-03-02T15:37:58.090Z,13.17
2023-03-02T15:40:25.147Z,12.63
2023-03-02T15:42:52.559Z,11.70
2023-03-02T15:45:19.040Z,11.67
2023-03-02T15:47:45.631Z,11.90
2023-03-02T15:50:12.596Z,11.70
2023-03-02T15:52:39.172Z,13.60
2023-03-02T15:55:05.756Z,17.77
2023-03-02T15:57:37.007Z,12.30
2023-03-02T16:00:05.320Z,12.80
2023-03-02T16:02:31.893Z,18.43
2023-03-02T16:04:58.384Z,17.57
2023-03-02T16:07:24.977Z,13.00
2023-03-02T16:09:51.880Z,13.00
2023-03-02T16:12:20.846Z,14.50
2023-03-02T16:14:47.273Z,13.13
2023-03-02T16:17:13.735Z,16.60
2023-03-02T16:19:40.295Z,15.53
2023-03-02T16:22:06.735Z,16.33
2023-03-02T16:24:33.214Z,12.67
2023-03-02T16:26:59.668Z,13.70
2023-03-02T16:29:29.093Z,18.20
2023-03-02T16:31:55.585Z,13.77
2023-03-02T16:34:22.271Z,12.30
2023-03-02T16:36:49.015Z,15.30
2023-03-02T16:39:15.499Z,13.27
2023-03-02T16:41:43.795Z,14.60
2023-03-02T16:44:11.278Z,12.50
2023-03-02T16:46:39.356Z,14.37
2023-03-02T16:49:06.655Z,14.60
2023-03-02T16:51:33.346Z,16.00
2023-03-02T16:53:59.854Z,14.73
2023-03-02T16:56:26.432Z,11.63
2023-03-02T16:58:52.902Z,12.93
2023-03-02T17:01:20.902Z,13.33
2023-03-02T17:03:49.298Z,15.53
2023-03-02T17:06:17.880Z,12.00
2023-03-02T17:08:44.374Z,15.10
2023-03-02T17:11:11.462Z,17.07
2023-03-02T17:13:38.516Z,51.87
2023-03-02T17:16:05.379Z,27.43
2023-03-02T17:18:33.024Z,24.80
2023-03-02T17:20:59.597Z,17.50
2023-03-02T17:23:27.427Z,20.00
2023-03-02T17:25:54.756Z,21.33
2023-03-02T17:28:21.304Z,21.40
2023-03-02T17:30:47.899Z,19.27
2023-03-02T17:33:14.832Z,20.53
2023-03-02T17:35:42.485Z,17.80
2023-03-02T17:38:08.917Z,24.03
2023-03-02T17:40:35.775Z,23.03
2023-03-02T17:43:02.280Z,20.37
2023-03-02T17:45:29.464Z,22.40
2023-03-02T17:47:58.027Z,22.07
2023-03-02T17:50:25.937Z,24.00
2023-03-02T17:52:52.796Z,21.17
2023-03-02T17:55:19.344Z,22.47
2023-03-02T17:57:45.852Z,22.20
2023-03-02T18:00:15.621Z,21.00
2023-03-02T18:02:42.062Z,24.97
2023-03-02T18:05:10.111Z,26.83
2023-03-02T18:07:37.749Z,23.63
2023-03-02T18:10:05.465Z,21.33
2023-03-02T18:12:32.133Z,26.60
2023-03-02T18:14:58.593Z,34.57
2023-03-02T18:17:25.172Z,29.43
2023-03-02T18:19:51.636Z,23.90
2023-03-02T18:22:18.101Z,26.90
2023-03-02T18:24:44.652Z,24.90
2023-03-02T18:27:11.203Z,24.50
2023-03-02T18:29:37.677Z,23.60
2023-03-02T18:32:04.293Z,24.50
2023-03-02T18:34:30.892Z,25.37
2023-03-02T18:36:57.334Z,26.70
2023-03-02T18:39:23.800Z,27.93
2023-03-02T18:41:50.293Z,26.73
2023-03-02T18:44:17.692Z,27.60
2023-03-02T18:46:47.134Z,27.50
2023-03-02T18:49:13.649Z,27.40
2023-03-02T18:51:40.110Z,29.30
2023-03-02T18:54:07.469Z,27.90
2023-03-02T18:56:34.067Z,32.80
2023-03-02T18:59:00.550Z,31.23
2023-03-02T19:01:31.222Z,30.57
2023-03-02T19:03:59.236Z,35.57
2023-03-02T19:06:25.808Z,31.53
2023-03-02T19:08:52.263Z,29.17
2023-03-02T19:11:18.815Z,28.00
2023-03-02T19:13:45.418Z,31.90
2023-03-02T19:16:13.531Z,29.10
2023-03-02T19:18:40.265Z,34.83
2023-03-02T19:21:07.030Z,32.27
2023-03-02T19:23:33.553Z,29.63
2023-03-02T19:26:00.453Z,34.17
2023-03-02T19:28:27.516Z,34.27
2023-03-02T19:30:54.008Z,32.87
2023-03-02T19:33:20.641Z,31.70
2023-03-02T19:35:47.227Z,32.73
2023-03-02T19:38:13.694Z,37.27
2023-03-02T19:40:40.484Z,30.67
2023-03-02T19:43:07.020Z,33.43
2023-03-02T19:45:34.942Z,32.13
2023-03-02T19:48:03.286Z,31.97
2023-03-02T19:50:30.036Z,40.80
2023-03-02T19:52:57.485Z,30.53
2023-03-02T19:55:25.272Z,32.50
2023-03-02T19:57:59.472Z,32.30
2023-03-02T20:00:28.468Z,34.17
2023-03-02T20:02:55.103Z,37.43
2023-03-02T20:05:21.775Z,32.80
2023-03-02T20:07:48.216Z,35.77
2023-03-02T20:10:42.868Z,36.83
2023-03-02T20:13:10.333Z,35.10
2023-03-02T20:15:39.253Z,32.60
2023-03-02T20:18:12.884Z,38.43
2023-03-02T20:20:39.470Z,35.20
2023-03-02T20:23:05.922Z,34.40
2023-03-02T20:25:32.536Z,39.77
2023-03-02T20:27:59.201Z,38.20
2023-03-02T20:30:34.004Z,37.63
2023-03-02T20:33:01.724Z,39.10
2023-03-02T20:35:30.673Z,37.70
2023-03-02T20:37:59.598Z,35.10
2023-03-02T20:40:26.701Z,32.80
2023-03-02T20:42:55.435Z,34.50
2023-03-02T20:45:21.951Z,35.67
2023-03-02T20:47:49.038Z,33.73
2023-03-02T20:50:20.163Z,37.43
2023-03-02T20:52:46.773Z,35.50
2023-03-02T20:55:14.690Z,36.50
2023-03-02T20:57:41.144Z,35.87
2023-03-02T21:00:13.638Z,35.63
2023-03-02T21:02:40.272Z,36.90
2023-03-02T21:05:06.985Z,33.97
2023-03-02T21:07:35.701Z,38.30
2023-03-02T21:10:06.313Z,39.37
2023-03-02T21:12:33.322Z,38.20
2023-03-02T21:15:01.998Z,41.40
2023-03-02T21:17:30.656Z,39.27
2023-03-02T21:19:58.132Z,37.60
2023-03-02T21:22:24.622Z,42.77
2023-03-02T21:24:52.940Z,40.10
2023-03-02T21:27:20.059Z,42.83
2023-03-02T21:29:46.564Z,37.87
2023-03-02T21:32:13.107Z,38.17
2023-03-02T21:34:39.599Z,46.97
2023-03-02T21:37:06.284Z,39.83
2023-03-02T21:39:32.738Z,45.60
2023-03-02T21:41:59.240Z,43.60
2023-03-02T21:44:25.815Z,43.10
2023-03-02T21:46:52.550Z,43.47
2023-03-02T21:49:21.407Z,48.33
2023-03-02T21:51:49.874Z,44.13
2023-03-02T21:54:16.514Z,45.23
2023-03-02T21:56:43.609Z,66.90
2023-03-02T21:59:10.631Z,50.77
2023-03-02T22:01:37.189Z,60.67
2023-03-02T22:04:04.011Z,48.03
2023-03-02T22:06:32.763Z,52.33
2023-03-02T22:08:59.587Z,54.90
2023-03-02T22:11:29.428Z,48.70
2023-03-02T22:14:02.446Z,46.20
2023-03-02T22:16:40.191Z,47.67
2023-03-02T22:19:22.484Z,46.20
2023-03-02T22:21:49.595Z,51.40
2023-03-02T22:24:26.360Z,51.60
2023-03-02T22:26:58.366Z,53.90
2023-03-02T22:29:26.757Z,42.80
2023-03-02T22:31:55.569Z,62.60
2023-03-02T22:34:25.218Z,70.20
2023-03-02T22:36:51.928Z,57.43
2023-03-02T22:39:28.043Z,53.90
2023-03-02T22:42:00.295Z,47.80
2023-03-02T22:44:26.779Z,47.40
2023-03-02T22:46:55.551Z,57.93
2023-03-02T22:49:22.036Z,49.00
2023-03-02T22:51:48.505Z,48.23
2023-03-02T22:54:23.172Z,53.90
2023-03-02T22:56:52.485Z,52.60
2023-03-02T22:59:24.656Z,50.13
2023-03-02T23:01:54.019Z,46.53
2023-03-02T23:04:23.879Z,52.43
2023-03-02T23:06:53.192Z,54.77
2023-03-02T23:09:31.528Z,50.33
2023-03-02T23:12:01.554Z,46.33
2023-03-02T23:14:35.721Z,52.70
2023-03-02T23:17:11.549Z,53.00
2023-03-02T23:19:38.079Z,51.03
2023-03-02T23:22:04.710Z,49.90
2023-03-02T23:24:31.337Z,52.30
2023-03-02T23:26:57.753Z,50.73
2023-03-02T23:29:24.218Z,49.90
2023-03-02T23:31:50.725Z,55.53
2023-03-02T23:34:17.380Z,54.10
2023-03-02T23:36:43.818Z,51.60
2023-03-02T23:39:11.014Z,54.93
2023-03-02T23:41:38.839Z,52.53
2023-03-02T23:44:06.554Z,52.90
2023-03-02T23:46:33.462Z,57.07
2023-03-02T23:49:00.615Z,60.27
2023-03-02T23:51:27.074Z,58.13
2023-03-02T23:53:53.909Z,58.37
2023-03-02T23:56:20.733Z,59.40
2023-03-02T23:58:48.084Z,57.40
